Time;durP1;ratioP1;P1;durP2;ratioP2;P2;SDS_P1;SDS_P2;PMS_P1;PMS_P2;Temp;Humidity;BMP_temperature;BMP_pressure;BME280_temperature;BME280_humidity;BME280_pressure;Samples;Min_cycle;Max_cycle;Signal;HPM_P1;HPM_P2
2021/04/04 00:01:19;;;;;;;11.70;3.60;;;;;;;;;;4969736;28;20054;-83
2021/04/04 00:03:46;;;;;;;12.57;4.00;;;;;;;;;;4952003;28;20495;-82
2021/04/04 00:06:16;;;;;;;13.23;4.05;;;;;;;;;;4971222;28;20057;-81
2021/04/04 00:08:43;;;;;;;11.55;4.10;;;;;;;;;;4966132;28;20152;-83
2021/04/04 00:11:11;;;;;;;12.95;3.80;;;;;;;;;;4962285;28;20046;-82
2021/04/04 00:13:39;;;;;;;11.60;3.67;;;;;;;;;;4961052;28;20088;-82
2021/04/04 00:16:06;;;;;;;11.43;3.80;;;;;;;;;;4939617;28;20047;-82
2021/04/04 00:18:35;;;;;;;12.95;3.70;;;;;;;;;;4972956;28;20042;-81
2021/04/04 00:21:03;;;;;;;11.30;3.53;;;;;;;;;;4922417;28;20045;-80
2021/04/04 00:23:30;;;;;;;9.18;3.70;;;;;;;;;;4937411;28;20035;-81
2021/04/04 00:25:58;;;;;;;12.30;3.75;;;;;;;;;;4946044;28;20061;-80
2021/04/04 00:28:26;;;;;;;10.98;4.07;;;;;;;;;;4948883;28;20129;-81
2021/04/04 00:30:56;;;;;;;14.63;3.88;;;;;;;;;;4986846;28;20037;-80
2021/04/04 00:33:25;;;;;;;11.90;4.13;;;;;;;;;;5016299;28;20095;-82
2021/04/04 00:35:52;;;;;;;13.10;4.20;;;;;;;;;;5009314;28;20037;-81
2021/04/04 00:38:19;;;;;;;12.05;4.03;;;;;;;;;;4989940;28;20042;-80
2021/04/04 00:40:47;;;;;;;16.08;5.43;;;;;;;;;;5001312;28;20037;-81
2021/04/04 00:43:15;;;;;;;14.32;6.05;;;;;;;;;;4990077;28;20096;-81
2021/04/04 00:45:44;;;;;;;14.82;5.78;;;;;;;;;;5004003;28;20064;-84
2021/04/04 00:48:12;;;;;;;16.35;6.20;;;;;;;;;;4977340;28;20049;-80
2021/04/04 00:50:42;;;;;;;17.33;5.72;;;;;;;;;;4981480;28;20041;-82
2021/04/04 00:53:10;;;;;;;18.50;6.00;;;;;;;;;;4953119;28;20030;-83
2021/04/04 00:55:37;;;;;;;13.00;4.97;;;;;;;;;;4940163;28;20585;-82
2021/04/04 00:58:06;;;;;;;14.57;5.75;;;;;;;;;;4976792;28;20038;-80
2021/04/04 01:00:36;;;;;;;16.38;5.88;;;;;;;;;;4986578;28;20053;-81
2021/04/04 01:03:04;;;;;;;14.57;5.25;;;;;;;;;;4954542;28;20060;-81
2021/04/04 01:05:38;;;;;;;16.50;6.57;;;;;;;;;;4968173;28;20034;-81
2021/04/04 01:08:08;;;;;;;13.77;6.10;;;;;;;;;;4995386;28;20045;-82
2021/04/04 01:10:45;;;;;;;18.60;5.95;;;;;;;;;;5011970;28;20230;-80
2021/04/04 01:13:32;;;;;;;14.20;5.07;;;;;;;;;;5002602;28;20049;-81
2021/04/04 01:16:05;;;;;;;13.77;5.03;;;;;;;;;;4987925;28;20018;-81
2021/04/04 01:18:42;;;;;;;17.52;5.32;;;;;;;;;;5005642;28;20033;-81
2021/04/04 01:21:25;;;;;;;14.73;4.78;;;;;;;;;;4986157;28;20073;-80
2021/04/04 01:24:10;;;;;;;13.77;4.65;;;;;;;;;;4989229;28;20026;-81
2021/04/04 01:27:18;;;;;;;13.00;5.05;;;;;;;;;;4992975;28;20067;-81
2021/04/04 01:29:45;;;;;;;11.20;4.67;;;;;;;;;;4939875;28;20077;-80
2021/04/04 01:32:14;;;;;;;12.10;4.80;;;;;;;;;;4899312;28;20285;-80
2021/04/04 01:34:45;;;;;;;14.77;4.93;;;;;;;;;;4919362;28;20114;-81
2021/04/04 01:37:15;;;;;;;16.20;5.07;;;;;;;;;;4911058;28;20047;-80
2021/04/04 01:39:46;;;;;;;11.43;4.28;;;;;;;;;;4943581;28;20113;-80
2021/04/04 01:42:24;;;;;;;12.27;4.70;;;;;;;;;;4893510;28;20141;-80
2021/04/04 01:44:53;;;;;;;11.75;4.20;;;;;;;;;;4908838;28;20031;-79
2021/04/04 01:47:21;;;;;;;12.98;4.72;;;;;;;;;;4915279;28;20043;-81
2021/04/04 01:49:56;;;;;;;11.02;4.30;;;;;;;;;;4938853;28;20153;-80
2021/04/04 01:52:25;;;;;;;12.82;4.80;;;;;;;;;;4920824;28;20038;-80
2021/04/04 01:54:53;;;;;;;13.35;4.10;;;;;;;;;;4932008;28;20046;-80
2021/04/04 01:57:23;;;;;;;12.30;4.93;;;;;;;;;;4936285;28;20039;-81
2021/04/04 01:59:51;;;;;;;13.85;4.90;;;;;;;;;;4911222;28;20048;-81
2021/04/04 02:02:19;;;;;;;14.60;4.68;;;;;;;;;;4907484;28;20141;-82
2021/04/04 02:04:47;;;;;;;13.73;4.40;;;;;;;;;;4916495;28;20046;-81
2021/04/04 02:07:16;;;;;;;13.55;4.60;;;;;;;;;;4913072;28;20031;-82
2021/04/04 02:09:45;;;;;;;10.88;4.05;;;;;;;;;;4946665;28;20132;-82
2021/04/04 02:12:13;;;;;;;16.25;4.85;;;;;;;;;;4916114;28;20038;-81
2021/04/04 02:14:42;;;;;;;14.52;4.60;;;;;;;;;;4969538;28;20132;-81
2021/04/04 02:17:10;;;;;;;11.82;4.10;;;;;;;;;;4975726;28;20112;-81
2021/04/04 02:19:37;;;;;;;10.20;4.47;;;;;;;;;;4954776;28;20046;-82
2021/04/04 02:22:15;;;;;;;14.23;4.18;;;;;;;;;;4937591;28;20046;-82
2021/04/04 02:24:43;;;;;;;15.18;4.72;;;;;;;;;;4960805;28;20044;-84
2021/04/04 02:27:12;;;;;;;13.05;4.20;;;;;;;;;;4964970;28;20140;-82
2021/04/04 02:29:38;;;;;;;12.82;4.15;;;;;;;;;;4957964;28;20164;-80
2021/04/04 02:32:11;;;;;;;11.82;4.30;;;;;;;;;;4988862;28;20059;-82
2021/04/04 02:34:41;;;;;;;15.55;4.78;;;;;;;;;;4972701;28;20029;-79
2021/04/04 02:37:12;;;;;;;13.05;4.07;;;;;;;;;;4958792;28;20034;-80
2021/04/04 02:39:44;;;;;;;13.43;4.15;;;;;;;;;;4989462;28;20068;-80
2021/04/04 02:42:14;;;;;;;14.32;4.30;;;;;;;;;;4985915;28;20040;-80
2021/04/04 02:44:45;;;;;;;17.13;4.43;;;;;;;;;;4985752;28;20056;-80
2021/04/04 02:47:18;;;;;;;13.50;4.05;;;;;;;;;;4935971;28;20152;-79
2021/04/04 02:49:51;;;;;;;15.75;3.83;;;;;;;;;;4967155;28;20077;-81
2021/04/04 02:52:19;;;;;;;10.23;3.83;;;;;;;;;;4960191;28;20041;-80
2021/04/04 02:54:54;;;;;;;11.98;3.60;;;;;;;;;;4961756;28;20061;-79
2021/04/04 02:57:23;;;;;;;10.20;3.50;;;;;;;;;;4976891;28;20037;-81
2021/04/04 02:59:53;;;;;;;10.90;3.45;;;;;;;;;;4961608;28;20034;-81
2021/04/04 03:02:20;;;;;;;10.35;3.05;;;;;;;;;;4941855;28;20057;-81
2021/04/04 03:04:51;;;;;;;7.97;3.00;;;;;;;;;;4950430;28;20038;-81
2021/04/04 03:07:20;;;;;;;12.05;3.40;;;;;;;;;;4946475;28;20034;-82
2021/04/04 03:09:51;;;;;;;12.00;3.30;;;;;;;;;;4956320;28;20450;-82
2021/04/04 03:12:19;;;;;;;10.70;3.45;;;;;;;;;;4977788;28;20042;-81
2021/04/04 03:14:50;;;;;;;10.27;3.22;;;;;;;;;;4978225;28;20030;-82
2021/04/04 03:17:18;;;;;;;10.00;3.38;;;;;;;;;;4985185;28;20046;-81
2021/04/04 03:19:46;;;;;;;10.07;3.50;;;;;;;;;;4977668;28;20120;-82
2021/04/04 03:22:14;;;;;;;9.93;2.80;;;;;;;;;;4965647;28;20038;-82
2021/04/04 03:24:45;;;;;;;10.43;3.20;;;;;;;;;;4973217;28;20029;-82
2021/04/04 03:27:13;;;;;;;12.48;3.63;;;;;;;;;;4915014;28;20533;-83
2021/04/04 03:29:42;;;;;;;13.23;3.80;;;;;;;;;;4946727;28;20039;-83
2021/04/04 03:32:11;;;;;;;12.13;3.67;;;;;;;;;;4969795;28;20034;-83
2021/04/04 03:34:40;;;;;;;13.77;3.90;;;;;;;;;;4987994;28;20041;-81
2021/04/04 03:37:08;;;;;;;13.55;2.75;;;;;;;;;;4980970;28;20572;-82
2021/04/04 03:39:35;;;;;;;10.80;2.90;;;;;;;;;;4995830;28;20508;-81
2021/04/04 03:42:04;;;;;;;8.85;3.40;;;;;;;;;;4991501;28;20036;-81
2021/04/04 03:44:35;;;;;;;9.95;3.08;;;;;;;;;;4950663;28;20125;-80
2021/04/04 03:47:03;;;;;;;9.25;2.90;;;;;;;;;;4989672;28;20034;-82
2021/04/04 03:49:32;;;;;;;10.50;3.00;;;;;;;;;;4993420;28;20057;-81
2021/04/04 03:52:00;;;;;;;9.63;2.92;;;;;;;;;;4986136;28;20563;-82
2021/04/04 03:54:27;;;;;;;9.05;3.10;;;;;;;;;;5002711;28;20113;-81
2021/04/04 03:56:58;;;;;;;8.00;2.60;;;;;;;;;;4995365;28;20029;-82
2021/04/04 03:59:26;;;;;;;7.95;2.42;;;;;;;;;;5011775;28;20029;-82
2021/04/04 04:01:53;;;;;;;10.10;2.80;;;;;;;;;;5024498;28;20034;-80
2021/04/04 04:04:22;;;;;;;9.57;2.75;;;;;;;;;;5012239;28;20096;-82
2021/04/04 04:06:48;;;;;;;7.30;2.50;;;;;;;;;;4997492;28;20060;-82
2021/04/04 04:09:20;;;;;;;9.45;2.67;;;;;;;;;;4974033;28;20050;-83
2021/04/04 04:11:52;;;;;;;8.07;2.70;;;;;;;;;;4997634;28;20030;-83
2021/04/04 04:14:21;;;;;;;8.73;2.90;;;;;;;;;;4957868;28;20046;-80
2021/04/04 04:16:51;;;;;;;10.63;3.00;;;;;;;;;;4989071;28;20056;-81
2021/04/04 04:19:18;;;;;;;10.90;3.47;;;;;;;;;;4967024;28;20919;-82
2021/04/04 04:21:47;;;;;;;11.10;2.97;;;;;;;;;;4998943;28;20053;-83
2021/04/04 04:24:15;;;;;;;11.05;3.00;;;;;;;;;;4982937;28;20026;-80
2021/04/04 04:26:46;;;;;;;9.98;2.80;;;;;;;;;;5015157;28;20045;-79
2021/04/04 04:29:17;;;;;;;10.55;3.22;;;;;;;;;;4960820;28;20043;-79
2021/04/04 04:31:48;;;;;;;10.55;3.05;;;;;;;;;;4985587;28;20045;-80
2021/04/04 04:34:18;;;;;;;9.68;2.83;;;;;;;;;;4985909;28;20033;-78
2021/04/04 04:36:48;;;;;;;10.65;2.67;;;;;;;;;;4984156;28;20136;-79
2021/04/04 04:39:17;;;;;;;8.32;2.67;;;;;;;;;;4978575;28;24804;-83
2021/04/04 04:41:53;;;;;;;12.18;3.33;;;;;;;;;;4990629;28;20076;-82
2021/04/04 04:44:23;;;;;;;8.95;2.72;;;;;;;;;;4994586;28;20030;-79
2021/04/04 04:46:51;;;;;;;10.80;3.10;;;;;;;;;;4969622;28;20044;-80
2021/04/04 04:49:19;;;;;;;12.98;3.38;;;;;;;;;;4968947;28;20042;-79
2021/04/04 04:51:51;;;;;;;10.35;2.70;;;;;;;;;;4955825;28;20072;-81
2021/04/04 04:54:20;;;;;;;11.43;2.70;;;;;;;;;;4962768;28;20034;-78
2021/04/04 04:56:48;;;;;;;9.93;2.88;;;;;;;;;;4949948;28;20194;-79
2021/04/04 04:59:15;;;;;;;10.50;2.70;;;;;;;;;;4961033;28;20120;-79
2021/04/04 05:01:48;;;;;;;9.18;2.70;;;;;;;;;;4960532;28;20108;-82
2021/04/04 05:04:16;;;;;;;9.90;2.80;;;;;;;;;;4961973;28;20074;-82
2021/04/04 05:06:43;;;;;;;12.68;3.10;;;;;;;;;;4970462;28;20129;-81
2021/04/04 05:09:14;;;;;;;10.23;2.80;;;;;;;;;;4888296;28;20037;-83
2021/04/04 05:11:47;;;;;;;11.75;2.83;;;;;;;;;;4941151;28;20525;-84
2021/04/04 05:14:15;;;;;;;11.40;2.80;;;;;;;;;;4935029;28;20054;-82
2021/04/04 05:16:46;;;;;;;9.60;2.85;;;;;;;;;;4934446;28;20178;-82
2021/04/04 05:19:15;;;;;;;11.35;3.00;;;;;;;;;;4934593;28;20038;-81
2021/04/04 05:21:44;;;;;;;13.30;3.08;;;;;;;;;;4939587;28;20061;-83
2021/04/04 05:24:14;;;;;;;14.65;3.72;;;;;;;;;;4927076;28;20185;-83
2021/04/04 05:26:46;;;;;;;12.30;3.47;;;;;;;;;;4922250;28;20038;-83
2021/04/04 05:29:17;;;;;;;9.52;2.83;;;;;;;;;;4895208;28;20110;-82
2021/04/04 05:31:56;;;;;;;8.30;2.60;;;;;;;;;;4874215;28;20086;-81
2021/04/04 05:34:25;;;;;;;10.82;2.92;;;;;;;;;;4910473;28;20031;-82
2021/04/04 05:36:58;;;;;;;13.00;3.50;;;;;;;;;;4924710;28;21033;-82
2021/04/04 05:39:30;;;;;;;14.43;3.42;;;;;;;;;;4955658;28;20030;-83
2021/04/04 05:41:59;;;;;;;13.30;3.40;;;;;;;;;;4966285;28;20050;-83
2021/04/04 05:44:44;;;;;;;13.80;3.13;;;;;;;;;;4978128;28;20034;-82
2021/04/04 05:47:35;;;;;;;11.70;2.92;;;;;;;;;;4951066;28;22175;-84
2021/04/04 05:50:21;;;;;;;13.00;3.10;;;;;;;;;;4945556;28;20092;-82
2021/04/04 05:52:59;;;;;;;9.98;3.38;;;;;;;;;;4981941;28;20096;-81
2021/04/04 05:55:50;;;;;;;13.35;3.25;;;;;;;;;;4957086;28;20065;-83
2021/04/04 05:58:25;;;;;;;13.73;3.70;;;;;;;;;;4978317;28;20198;-84
2021/04/04 06:00:54;;;;;;;11.38;2.80;;;;;;;;;;5001371;28;20046;-82
2021/04/04 06:03:41;;;;;;;18.20;3.53;;;;;;;;;;4997080;28;20048;-82
2021/04/04 06:06:27;;;;;;;14.23;3.63;;;;;;;;;;4956898;28;20029;-83
2021/04/04 06:09:18;;;;;;;13.65;3.67;;;;;;;;;;4997827;28;20856;-81
2021/04/04 06:12:04;;;;;;;14.30;3.47;;;;;;;;;;4989878;28;20100;-82
2021/04/04 06:14:51;;;;;;;13.20;3.63;;;;;;;;;;4997808;28;20054;-80
2021/04/04 06:17:18;;;;;;;;;;;;;;;;;;4994245;28;20033;-80
2021/04/04 06:20:13;;;;;;;16.00;3.88;;;;;;;;;;4996145;28;19917;-80
2021/04/04 06:23:02;;;;;;;15.43;3.92;;;;;;;;;;4996980;28;20037;-80
2021/04/04 06:25:49;;;;;;;13.93;3.42;;;;;;;;;;4992156;28;20055;-81
2021/04/04 06:28:36;;;;;;;13.30;4.20;;;;;;;;;;4930816;28;20534;-80
2021/04/04 06:31:25;;;;;;;15.68;4.05;;;;;;;;;;4919221;28;20220;-82
2021/04/04 06:34:08;;;;;;;16.55;3.75;;;;;;;;;;4917408;28;20059;-82
2021/04/04 06:37:12;;;;;;;14.45;3.75;;;;;;;;;;4946901;28;20042;-82
2021/04/04 06:39:57;;;;;;;16.90;3.92;;;;;;;;;;4925569;28;20066;-82
2021/04/04 06:42:44;;;;;;;16.10;4.00;;;;;;;;;;4910397;28;20044;-81
2021/04/04 06:45:35;;;;;;;17.30;4.20;;;;;;;;;;4881930;28;20036;-82
2021/04/04 06:48:21;;;;;;;15.23;4.10;;;;;;;;;;4919507;28;20150;-80
2021/04/04 06:50:56;;;;;;;16.35;4.13;;;;;;;;;;4917546;28;20063;-79
2021/04/04 06:53:29;;;;;;;19.92;4.18;;;;;;;;;;4901612;28;20027;-82
2021/04/04 06:56:29;;;;;;;15.52;4.15;;;;;;;;;;4942518;28;20050;-79
2021/04/04 06:59:00;;;;;;;17.00;3.95;;;;;;;;;;4931386;28;20077;-81
2021/04/04 07:01:37;;;;;;;17.05;4.07;;;;;;;;;;4925183;28;20053;-81
2021/04/04 07:04:26;;;;;;;17.17;4.22;;;;;;;;;;4918280;28;20043;-81
2021/04/04 07:07:13;;;;;;;19.80;4.53;;;;;;;;;;4925381;28;20478;-82
2021/04/04 07:09:58;;;;;;;15.80;4.25;;;;;;;;;;4938098;28;20210;-82
2021/04/04 07:12:39;;;;;;;17.42;4.05;;;;;;;;;;4913931;29;20043;-83
2021/04/04 07:15:26;;;;;;;18.05;4.32;;;;;;;;;;4991173;28;20956;-82
2021/04/04 07:18:11;;;;;;;16.15;4.25;;;;;;;;;;4946468;28;20041;-82
2021/04/04 07:20:43;;;;;;;17.05;4.38;;;;;;;;;;4968596;28;20279;-82
2021/04/04 07:23:28;;;;;;;15.80;4.18;;;;;;;;;;4986341;28;20033;-81
2021/04/04 07:26:13;;;;;;;18.45;4.45;;;;;;;;;;4977176;28;20038;-83
2021/04/04 07:28:55;;;;;;;20.65;4.75;;;;;;;;;;4966232;28;20046;-83
2021/04/04 07:44:47;;;;;;;17.25;3.97;;;;;;;;;;4870792;29;20114;-86
2021/04/04 07:47:27;;;;;;;21.15;4.53;;;;;;;;;;4824159;29;20038;-84
2021/04/04 07:49:59;;;;;;;20.52;6.90;;;;;;;;;;4771573;29;20050;-86
2021/04/04 07:52:47;;;;;;;18.83;6.40;;;;;;;;;;4837166;29;20037;-85
2021/04/04 07:55:19;;;;;;;18.42;4.80;;;;;;;;;;4847189;29;20041;-84
2021/04/04 07:58:03;;;;;;;15.43;4.45;;;;;;;;;;4836368;29;20320;-86
2021/04/04 08:00:35;;;;;;;14.18;4.30;;;;;;;;;;4877005;29;20892;-86
2021/04/04 08:03:10;;;;;;;20.02;5.22;;;;;;;;;;4897957;29;20924;-84
2021/04/04 08:05:44;;;;;;;17.15;4.43;;;;;;;;;;4900838;28;20555;-85
2021/04/04 08:08:19;;;;;;;20.83;4.85;;;;;;;;;;4897791;28;20044;-86
2021/04/04 08:10:57;;;;;;;13.93;3.85;;;;;;;;;;4920705;28;20031;-84
2021/04/04 08:13:38;;;;;;;18.05;3.95;;;;;;;;;;4925198;28;20095;-84
2021/04/04 08:16:27;;;;;;;15.38;3.90;;;;;;;;;;4910795;28;20040;-83
2021/04/04 08:18:55;;;;;;;17.95;4.13;;;;;;;;;;4927604;28;20142;-84
2021/04/04 08:21:27;;;;;;;17.15;4.07;;;;;;;;;;4948290;28;20043;-87
2021/04/04 08:23:57;;;;;;;21.83;4.70;;;;;;;;;;4932711;28;20043;-84
2021/04/04 08:26:27;;;;;;;17.70;4.40;;;;;;;;;;4968552;28;20157;-84
2021/04/04 08:29:14;;;;;;;17.23;4.03;;;;;;;;;;4977434;28;20041;-86
2021/04/04 08:31:44;;;;;;;15.00;4.25;;;;;;;;;;4969835;28;20038;-84
2021/04/04 08:34:13;;;;;;;14.55;3.70;;;;;;;;;;4958334;28;20038;-86
2021/04/04 08:36:47;;;;;;;15.05;3.95;;;;;;;;;;4963868;28;20038;-85
2021/04/04 08:39:29;;;;;;;19.92;3.58;;;;;;;;;;4965440;28;20042;-85
2021/04/04 08:41:58;;;;;;;15.23;4.05;;;;;;;;;;4920575;28;20080;-84
2021/04/04 08:44:31;;;;;;;13.98;4.00;;;;;;;;;;4963443;28;20050;-85
2021/04/04 08:47:04;;;;;;;17.90;3.70;;;;;;;;;;4940166;28;20043;-84
2021/04/04 08:49:31;;;;;;;15.65;4.40;;;;;;;;;;4904554;28;20032;-84
2021/04/04 08:52:03;;;;;;;18.95;4.10;;;;;;;;;;4882639;28;20122;-84
2021/04/04 08:54:34;;;;;;;12.00;3.95;;;;;;;;;;4904717;29;20408;-84
2021/04/04 08:57:02;;;;;;;17.63;4.28;;;;;;;;;;4981484;28;20105;-86
2021/04/04 08:59:32;;;;;;;15.50;3.70;;;;;;;;;;4972527;28;20747;-85
2021/04/04 09:02:04;;;;;;;14.27;3.80;;;;;;;;;;4986646;28;20069;-85
2021/04/04 09:04:33;;;;;;;14.52;3.60;;;;;;;;;;4976750;28;20427;-86
2021/04/04 09:07:05;;;;;;;14.45;3.90;;;;;;;;;;4982736;28;20046;-85
2021/04/04 09:09:37;;;;;;;13.30;4.00;;;;;;;;;;5004075;28;20178;-84
2021/04/04 09:12:05;;;;;;;15.65;3.75;;;;;;;;;;4988037;28;20341;-85
2021/04/04 09:14:42;;;;;;;11.68;3.10;;;;;;;;;;4983235;28;20102;-82
2021/04/04 09:17:17;;;;;;;13.05;3.38;;;;;;;;;;4930461;28;20556;-83
2021/04/04 09:19:47;;;;;;;13.20;3.78;;;;;;;;;;4979404;28;20073;-81
2021/04/04 09:22:20;;;;;;;14.10;3.55;;;;;;;;;;4956116;28;20037;-84
2021/04/04 09:25:00;;;;;;;14.38;3.95;;;;;;;;;;4980842;28;20030;-83
2021/04/04 09:27:29;;;;;;;13.32;3.50;;;;;;;;;;4980361;28;20129;-83
2021/04/04 09:29:57;;;;;;;10.20;3.20;;;;;;;;;;4970981;28;20528;-81
2021/04/04 09:32:45;;;;;;;14.55;3.25;;;;;;;;;;4986352;28;20029;-83
2021/04/04 09:35:14;;;;;;;12.55;3.10;;;;;;;;;;4990234;28;20498;-83
2021/04/04 09:37:41;;;;;;;15.50;4.18;;;;;;;;;;4979159;28;20077;-82
2021/04/04 09:40:13;;;;;;;13.27;3.42;;;;;;;;;;4991490;28;20124;-83
2021/04/04 09:42:41;;;;;;;14.18;4.63;;;;;;;;;;4979543;28;20060;-82
2021/04/04 09:45:17;;;;;;;14.75;4.43;;;;;;;;;;4990218;28;20056;-83
2021/04/04 09:47:46;;;;;;;11.95;3.35;;;;;;;;;;4985947;28;20048;-81
2021/04/04 09:50:24;;;;;;;16.13;4.55;;;;;;;;;;4983323;28;20110;-81
2021/04/04 09:52:55;;;;;;;13.68;3.67;;;;;;;;;;4988179;28;20072;-80
2021/04/04 09:55:33;;;;;;;14.13;3.92;;;;;;;;;;4983045;28;20607;-80
2021/04/04 09:58:20;;;;;;;17.98;4.20;;;;;;;;;;4990468;28;20463;-80
2021/04/04 10:00:47;;;;;;;17.08;4.28;;;;;;;;;;4969555;28;20263;-79
2021/04/04 10:03:19;;;;;;;14.50;4.20;;;;;;;;;;4987232;28;20046;-79
2021/04/04 10:05:50;;;;;;;13.73;3.67;;;;;;;;;;5009531;28;20029;-84
2021/04/04 10:08:20;;;;;;;16.13;4.10;;;;;;;;;;4978705;28;20104;-85
2021/04/04 10:10:54;;;;;;;14.50;3.75;;;;;;;;;;4990900;28;24020;-85
2021/04/04 10:13:32;;;;;;;14.52;4.80;;;;;;;;;;4985880;28;20092;-82
2021/04/04 10:16:03;;;;;;;14.60;4.30;;;;;;;;;;4966852;28;20072;-82
2021/04/04 10:18:32;;;;;;;15.52;4.22;;;;;;;;;;4963240;28;20064;-80
2021/04/04 10:20:59;;;;;;;14.43;3.78;;;;;;;;;;4974102;28;20034;-84
2021/04/04 10:23:31;;;;;;;14.90;3.30;;;;;;;;;;4930898;28;20076;-83
2021/04/04 10:26:02;;;;;;;17.23;4.00;;;;;;;;;;4969619;28;20041;-82
2021/04/04 10:29:00;;;;;;;14.25;4.22;;;;;;;;;;4974816;28;20586;-82
2021/04/04 10:31:46;;;;;;;18.48;4.80;;;;;;;;;;4921809;28;20125;-79
2021/04/04 10:34:15;;;;;;;16.55;4.35;;;;;;;;;;4933531;28;20125;-82
2021/04/04 10:37:01;;;;;;;15.15;4.50;;;;;;;;;;4975278;28;20034;-83
2021/04/04 10:39:32;;;;;;;14.70;3.83;;;;;;;;;;4891943;28;20486;-81
2021/04/04 10:42:21;;;;;;;14.63;3.97;;;;;;;;;;4911270;28;20134;-79
2021/04/04 10:44:50;;;;;;;14.27;3.80;;;;;;;;;;4977386;28;20045;-80
2021/04/04 10:47:17;;;;;;;18.70;4.60;;;;;;;;;;4965962;28;20830;-80
2021/04/04 10:49:45;;;;;;;14.02;4.35;;;;;;;;;;4976202;28;20048;-80
2021/04/04 10:52:14;;;;;;;18.02;4.53;;;;;;;;;;5004670;28;20041;-80
2021/04/04 10:54:41;;;;;;;13.88;4.25;;;;;;;;;;4983766;28;20509;-80
2021/04/04 10:57:11;;;;;;;18.05;4.50;;;;;;;;;;4974571;28;20494;-80
2021/04/04 10:59:40;;;;;;;15.35;3.72;;;;;;;;;;4986724;28;20069;-79
2021/04/04 11:02:09;;;;;;;18.90;5.15;;;;;;;;;;4982020;28;20597;-80
2021/04/04 11:04:38;;;;;;;14.95;4.70;;;;;;;;;;4991501;28;20037;-79
2021/04/04 11:07:09;;;;;;;18.35;4.72;;;;;;;;;;4987233;28;20072;-81
2021/04/04 11:09:36;;;;;;;16.15;4.82;;;;;;;;;;4996130;28;20717;-79
2021/04/04 11:12:06;;;;;;;21.27;5.07;;;;;;;;;;5000707;28;20041;-80
2021/04/04 11:14:34;;;;;;;15.95;4.65;;;;;;;;;;4991953;28;20053;-79
2021/04/04 11:17:03;;;;;;;15.38;4.93;;;;;;;;;;4952524;28;20046;-80
2021/04/04 11:19:32;;;;;;;15.98;4.25;;;;;;;;;;4957096;28;20604;-80
2021/04/04 11:22:00;;;;;;;16.88;4.50;;;;;;;;;;4988866;28;20445;-80
2021/04/04 11:24:29;;;;;;;16.27;4.38;;;;;;;;;;4988969;28;20037;-81
2021/04/04 11:27:02;;;;;;;14.85;4.82;;;;;;;;;;4973272;28;20033;-81
2021/04/04 11:29:45;;;;;;;15.25;4.53;;;;;;;;;;4989427;28;20419;-80
2021/04/04 11:32:17;;;;;;;14.65;4.72;;;;;;;;;;4962970;28;20062;-81
2021/04/04 11:34:57;;;;;;;12.35;3.97;;;;;;;;;;4978013;28;20118;-79
2021/04/04 11:37:34;;;;;;;13.50;4.43;;;;;;;;;;4983169;28;20030;-80
2021/04/04 11:40:19;;;;;;;15.93;4.70;;;;;;;;;;4967015;28;20095;-81
2021/04/04 11:42:50;;;;;;;13.23;4.53;;;;;;;;;;4981089;28;20052;-79
2021/04/04 11:45:41;;;;;;;13.73;4.40;;;;;;;;;;4989060;28;20021;-80
2021/04/04 11:48:27;;;;;;;14.68;4.07;;;;;;;;;;4950563;28;20080;-80
2021/04/04 11:50:57;;;;;;;15.75;4.53;;;;;;;;;;4985363;28;20045;-80
2021/04/04 11:53:43;;;;;;;15.25;4.53;;;;;;;;;;4990068;28;20100;-81
2021/04/04 11:56:30;;;;;;;13.13;3.97;;;;;;;;;;4982887;28;20292;-82
2021/04/04 11:59:00;;;;;;;14.00;4.32;;;;;;;;;;4989485;28;20061;-81
2021/04/04 12:01:29;;;;;;;17.20;4.85;;;;;;;;;;4981170;28;20058;-83
2021/04/04 12:03:56;;;;;;;17.77;4.45;;;;;;;;;;4991067;28;20042;-82
2021/04/04 12:06:28;;;;;;;18.65;4.35;;;;;;;;;;4997968;28;20033;-83
2021/04/04 12:08:56;;;;;;;14.75;4.22;;;;;;;;;;4999373;28;20034;-84
2021/04/04 12:11:32;;;;;;;15.23;4.20;;;;;;;;;;5004323;28;20869;-83
2021/04/04 12:14:00;;;;;;;14.05;4.35;;;;;;;;;;4979893;28;20122;-81
2021/04/04 12:16:47;;;;;;;13.35;3.92;;;;;;;;;;4984279;28;20044;-83
2021/04/04 12:19:24;;;;;;;17.30;4.30;;;;;;;;;;4984171;28;21074;-82
2021/04/04 12:21:53;;;;;;;17.25;4.22;;;;;;;;;;4987705;28;20037;-82
2021/04/04 12:24:22;;;;;;;15.55;4.47;;;;;;;;;;4997403;28;20041;-82
2021/04/04 12:26:59;;;;;;;14.60;4.40;;;;;;;;;;4982033;28;20037;-80
2021/04/04 12:29:32;;;;;;;15.18;4.75;;;;;;;;;;4988985;28;20710;-80
2021/04/04 12:32:04;;;;;;;12.48;3.88;;;;;;;;;;4980954;28;20539;-79
2021/04/04 12:34:32;;;;;;;11.02;4.00;;;;;;;;;;4970117;28;20067;-87
2021/04/04 12:36:59;;;;;;;13.55;4.30;;;;;;;;;;4990687;28;20044;-86
2021/04/04 12:39:29;;;;;;;15.05;4.63;;;;;;;;;;5021068;28;20026;-81
2021/04/04 12:41:58;;;;;;;13.95;5.15;;;;;;;;;;5001907;28;20061;-81
2021/04/04 12:44:41;;;;;;;14.75;4.03;;;;;;;;;;4973497;28;20048;-83
2021/04/04 12:47:11;;;;;;;11.65;3.80;;;;;;;;;;4983093;28;20613;-85
2021/04/04 12:49:43;;;;;;;11.68;4.32;;;;;;;;;;4974977;28;20042;-83
2021/04/04 12:52:12;;;;;;;12.75;3.65;;;;;;;;;;4985561;28;20216;-84
2021/04/04 12:54:41;;;;;;;12.63;4.15;;;;;;;;;;4986052;28;20029;-83
2021/04/04 12:57:21;;;;;;;13.02;3.60;;;;;;;;;;4934294;28;20611;-85
2021/04/04 12:59:49;;;;;;;11.60;3.38;;;;;;;;;;5001406;28;20544;-82
2021/04/04 13:02:17;;;;;;;14.93;3.60;;;;;;;;;;5003191;28;20057;-82
2021/04/04 13:04:46;;;;;;;13.95;3.70;;;;;;;;;;5003144;28;20136;-83
2021/04/04 13:07:14;;;;;;;14.20;3.85;;;;;;;;;;4946085;28;20046;-82
2021/04/04 13:12:43;;;;;;;12.75;3.42;;;;;;;;;;4944710;28;20467;-82
2021/04/04 13:15:13;;;;;;;;;;;;;;;;;;4944731;28;20046;-81
2021/04/04 13:17:43;;;;;;;12.32;3.70;;;;;;;;;;4937809;28;19925;-81
2021/04/04 13:20:16;;;;;;;11.35;3.63;;;;;;;;;;4972744;28;20076;-80
2021/04/04 13:22:45;;;;;;;13.38;3.70;;;;;;;;;;4930238;28;20029;-82
2021/04/04 13:25:16;;;;;;;15.38;4.05;;;;;;;;;;4939949;28;20042;-80
2021/04/04 13:27:50;;;;;;;14.77;4.50;;;;;;;;;;4963851;28;20121;-83
2021/04/04 13:30:27;;;;;;;19.02;9.38;;;;;;;;;;4979934;28;20042;-83
2021/04/04 13:32:56;;;;;;;11.00;3.92;;;;;;;;;;4924132;28;20046;-82
2021/04/04 13:35:34;;;;;;;12.18;4.30;;;;;;;;;;4956286;28;20120;-82
2021/04/04 13:38:05;;;;;;;16.33;4.97;;;;;;;;;;4961536;28;20056;-81
2021/04/04 13:40:38;;;;;;;16.05;4.50;;;;;;;;;;4957609;28;20034;-84
2021/04/04 13:43:10;;;;;;;12.57;3.67;;;;;;;;;;4953073;28;23318;-84
2021/04/04 13:45:52;;;;;;;11.10;3.88;;;;;;;;;;4967414;28;20093;-85
2021/04/04 13:48:32;;;;;;;13.45;5.25;;;;;;;;;;4945731;28;20129;-82
2021/04/04 13:50:59;;;;;;;12.45;4.03;;;;;;;;;;4935482;28;20034;-81
2021/04/04 13:53:36;;;;;;;12.80;3.60;;;;;;;;;;4940818;28;20034;-83
2021/04/04 13:56:11;;;;;;;14.65;4.32;;;;;;;;;;4945403;28;20042;-83
2021/04/04 13:58:48;;;;;;;15.70;4.28;;;;;;;;;;4956839;28;20031;-82
2021/04/04 14:01:29;;;;;;;12.40;3.92;;;;;;;;;;4961003;28;20046;-82
2021/04/04 14:04:08;;;;;;;14.27;4.03;;;;;;;;;;4907337;28;20394;-84
2021/04/04 14:06:45;;;;;;;13.90;4.20;;;;;;;;;;4929510;28;20070;-84
2021/04/04 14:09:17;;;;;;;16.50;4.45;;;;;;;;;;4933731;28;20073;-82
2021/04/04 14:11:47;;;;;;;16.27;4.00;;;;;;;;;;4945916;28;20140;-81
2021/04/04 14:14:34;;;;;;;14.90;4.00;;;;;;;;;;4977558;28;20049;-82
2021/04/04 14:17:05;;;;;;;18.30;5.10;;;;;;;;;;4969972;28;20132;-81
2021/04/04 14:19:55;;;;;;;16.63;5.05;;;;;;;;;;4924341;28;20069;-84
2021/04/04 14:22:22;;;;;;;14.45;4.47;;;;;;;;;;4955874;28;20100;-81
2021/04/04 14:24:51;;;;;;;16.23;4.63;;;;;;;;;;4948490;28;20027;-81
2021/04/04 14:27:18;;;;;;;16.00;4.35;;;;;;;;;;4945381;28;20536;-81
2021/04/04 14:29:45;;;;;;;17.83;4.57;;;;;;;;;;4922459;28;21045;-81
2021/04/04 14:32:20;;;;;;;19.58;5.18;;;;;;;;;;4927520;28;20046;-82
2021/04/04 14:34:51;;;;;;;15.35;4.30;;;;;;;;;;4928505;28;20103;-81
2021/04/04 14:37:19;;;;;;;16.85;4.72;;;;;;;;;;4936462;28;20709;-83
2021/04/04 14:42:41;;;;;;;15.37;5.53;;;;;;;;;;4914943;29;20039;-86
2021/04/04 14:45:08;;;;;;;15.55;5.00;;;;;;;;;;4858223;29;20119;-83
2021/04/04 14:47:35;;;;;;;18.40;6.47;;;;;;;;;;4879872;29;20067;-82
2021/04/04 14:50:04;;;;;;;16.25;4.88;;;;;;;;;;4896084;28;20043;-82
2021/04/04 14:52:35;;;;;;;18.98;5.75;;;;;;;;;;4899047;29;20040;-81
2021/04/04 14:55:04;;;;;;;14.80;4.70;;;;;;;;;;4857598;29;20283;-82
2021/04/04 14:57:32;;;;;;;14.70;5.40;;;;;;;;;;4896267;29;20036;-81
2021/04/04 15:00:00;;;;;;;19.77;4.70;;;;;;;;;;4892036;28;20151;-80
2021/04/04 15:02:33;;;;;;;16.30;4.55;;;;;;;;;;4869885;29;20089;-80
2021/04/04 15:05:00;;;;;;;15.43;5.70;;;;;;;;;;4864328;29;20376;-82
2021/04/04 15:07:32;;;;;;;18.15;6.32;;;;;;;;;;4887235;29;20040;-82
2021/04/04 15:10:00;;;;;;;16.58;4.97;;;;;;;;;;4880710;29;20097;-82
2021/04/04 15:12:34;;;;;;;15.15;5.00;;;;;;;;;;4911814;29;20063;-82
2021/04/04 15:15:01;;;;;;;13.20;4.47;;;;;;;;;;4872514;28;20595;-82
2021/04/04 15:17:32;;;;;;;18.27;5.40;;;;;;;;;;4919186;28;20142;-82
2021/04/04 15:20:03;;;;;;;16.10;4.05;;;;;;;;;;4934667;28;20671;-80
2021/04/04 15:22:31;;;;;;;13.45;4.50;;;;;;;;;;5004610;28;20046;-81
2021/04/04 15:25:01;;;;;;;18.00;5.00;;;;;;;;;;4999027;28;20022;-81